aviador You're here:

MMEP Decoded Metar

TEPIC in MEXICO
Report Time2017-08-22 00:48:00
UTC Time2017-08-22 01:42:31
Flight Rules mvfr MVFR
Wind220° at 05 kt
W.Decomp.*RWY 20: 4.9 kt HW 1.0 kt RCW
W.Rank220° ranks 8
Current wind is below 220° avg. (5.4)
Visibility9999 m
Phenomena:N/A
Clouds:Scattered 007 Hf
Broken 020 Hf
Expected CloudBase > 2,800 ft AGL from Temp-Dew spread
Ceiling2,000 ft
Temp26°C (ISA +17)
Dew Point19°C (65% RH)
QNH1016 hPa
Density Alt5,180 ft
Elevation3,025 ft
Report Wrong Elevation
Raw Report
MMEP 220048Z 22005KT 7SM SCT007 BKN020 26/19 A2999 RMK 8/500=

Extra information for MMEP:More info

Metar Taf Metar & Taf Last 4 Metars F.Rules Stats Wind Profile Meteogram Temp Stats Airport Information Weather charts Add Link Nearby VenuesMetar ALERT Operation Metar Decoded Social comments